Time;durP1;ratioP1;P1;durP2;ratioP2;P2;SDS_P1;SDS_P2;PMS_P1;PMS_P2;Temp;Humidity;BMP_temperature;BMP_pressure;BME280_temperature;BME280_humidity;BME280_pressure;Samples;Min_cycle;Max_cycle;Signal;HPM_P1;HPM_P2
2022/07/14 00:01:51;;;;;;;4.43;1.75;;;;;;;;;;8281477;28;20033;-60
2022/07/14 00:05:51;;;;;;;3.08;1.77;;;;;;;;;;8284523;28;20052;-60
2022/07/14 00:09:51;;;;;;;1.63;1.52;;;;;;;;;;8282873;28;20722;-60
2022/07/14 00:13:51;;;;;;;3.47;1.50;;;;;;;;;;8283622;28;20030;-60
2022/07/14 00:17:52;;;;;;;3.30;1.58;;;;;;;;;;8282317;28;20100;-60
2022/07/14 00:21:54;;;;;;;2.42;1.60;;;;;;;;;;8282249;28;20026;-60
2022/07/14 00:25:54;;;;;;;2.80;1.50;;;;;;;;;;8284071;28;20022;-60
2022/07/14 00:29:54;;;;;;;2.60;1.73;;;;;;;;;;8282717;28;20029;-60
2022/07/14 00:33:54;;;;;;;3.72;1.65;;;;;;;;;;8284625;28;20713;-60
2022/07/14 00:37:54;;;;;;;2.85;1.50;;;;;;;;;;8283544;28;20036;-60
2022/07/14 00:41:55;;;;;;;3.50;1.85;;;;;;;;;;8282782;28;20751;-59
2022/07/14 00:45:55;;;;;;;2.97;1.60;;;;;;;;;;8286442;28;20038;-60
2022/07/14 00:49:55;;;;;;;4.80;1.83;;;;;;;;;;8290970;28;20900;-60
2022/07/14 00:53:56;;;;;;;3.97;1.70;;;;;;;;;;8289382;28;20025;-60
2022/07/14 00:57:56;;;;;;;1.70;1.60;;;;;;;;;;8289448;28;20026;-60
2022/07/14 01:01:57;;;;;;;2.50;1.52;;;;;;;;;;8291192;28;20517;-60
2022/07/14 01:05:57;;;;;;;2.78;1.67;;;;;;;;;;8290768;28;20050;-60
2022/07/14 01:09:57;;;;;;;7.07;1.67;;;;;;;;;;8289176;28;20080;-61
2022/07/14 01:14:02;;;;;;;2.95;1.70;;;;;;;;;;8285620;28;20036;-61
2022/07/14 01:18:03;;;;;;;3.47;1.90;;;;;;;;;;8284273;28;20065;-62
2022/07/14 01:22:04;;;;;;;3.00;1.70;;;;;;;;;;8287174;28;20991;-61
2022/07/14 01:26:05;;;;;;;1.75;1.60;;;;;;;;;;8294867;28;20642;-61
2022/07/14 01:30:05;;;;;;;2.60;1.80;;;;;;;;;;8286856;28;20049;-61
2022/07/14 01:34:06;;;;;;;2.65;1.70;;;;;;;;;;8287976;28;20129;-60
2022/07/14 01:38:06;;;;;;;1.90;1.42;;;;;;;;;;8288781;28;20033;-62
2022/07/14 01:42:06;;;;;;;2.83;1.88;;;;;;;;;;8287833;28;20507;-62
2022/07/14 01:46:08;;;;;;;6.05;1.67;;;;;;;;;;8287460;28;20454;-61
2022/07/14 01:50:08;;;;;;;1.98;1.60;;;;;;;;;;8288052;28;20026;-61
2022/07/14 01:54:09;;;;;;;3.53;1.80;;;;;;;;;;8290090;28;20046;-60
2022/07/14 01:58:09;;;;;;;1.90;1.70;;;;;;;;;;8286201;28;20033;-61
2022/07/14 02:02:11;;;;;;;1.55;1.45;;;;;;;;;;8289771;28;20041;-60
2022/07/14 02:06:12;;;;;;;2.78;1.65;;;;;;;;;;8287763;28;20534;-60
2022/07/14 02:14:31;;;;;;;1.52;1.40;;;;;;;;;;8287264;28;20092;-61
2022/07/14 02:18:31;;;;;;;2.15;1.50;;;;;;;;;;8283394;28;20737;-61
2022/07/14 02:22:31;;;;;;;3.03;1.70;;;;;;;;;;8284892;28;20032;-61
2022/07/14 02:26:32;;;;;;;2.90;1.73;;;;;;;;;;8285402;28;20028;-61
2022/07/14 02:30:32;;;;;;;4.03;1.60;;;;;;;;;;8284925;28;20044;-61
2022/07/14 02:34:32;;;;;;;2.30;1.60;;;;;;;;;;8288029;28;20116;-60
2022/07/14 02:38:33;;;;;;;2.35;1.60;;;;;;;;;;8285490;28;20581;-63
2022/07/14 02:42:33;;;;;;;1.88;1.30;;;;;;;;;;8285663;28;20401;-60
2022/07/14 02:46:33;;;;;;;2.93;1.50;;;;;;;;;;8286491;28;20045;-61
2022/07/14 02:50:36;;;;;;;2.00;1.53;;;;;;;;;;8285426;28;20037;-60
2022/07/14 02:54:36;;;;;;;2.47;1.45;;;;;;;;;;8283906;28;20183;-60
2022/07/14 02:58:36;;;;;;;3.22;1.67;;;;;;;;;;8288685;28;20061;-60
2022/07/14 03:02:36;;;;;;;2.42;1.52;;;;;;;;;;8285794;28;20041;-61
2022/07/14 03:06:37;;;;;;;3.17;1.47;;;;;;;;;;8286459;28;20120;-60
2022/07/14 03:10:37;;;;;;;4.60;1.50;;;;;;;;;;8285118;28;20079;-62
2022/07/14 03:14:37;;;;;;;2.53;1.40;;;;;;;;;;8283299;28;20033;-60
2022/07/14 03:18:39;;;;;;;5.85;1.50;;;;;;;;;;8283572;28;20040;-61
2022/07/14 03:22:39;;;;;;;2.17;1.42;;;;;;;;;;8283453;28;20617;-61
2022/07/14 03:26:39;;;;;;;3.33;1.57;;;;;;;;;;8284075;28;20053;-60
2022/07/14 03:30:42;;;;;;;2.60;1.30;;;;;;;;;;8285140;28;20041;-60
2022/07/14 03:34:42;;;;;;;1.65;1.50;;;;;;;;;;8283601;28;20120;-61
2022/07/14 03:38:43;;;;;;;1.60;1.50;;;;;;;;;;8284826;28;20064;-61
2022/07/14 03:42:44;;;;;;;4.68;1.60;;;;;;;;;;8284316;28;20280;-60
2022/07/14 03:46:44;;;;;;;2.92;1.38;;;;;;;;;;8282391;28;20046;-61
2022/07/14 03:50:44;;;;;;;2.22;1.67;;;;;;;;;;8286252;28;20161;-60
2022/07/14 03:54:45;;;;;;;4.45;1.50;;;;;;;;;;8284692;28;20696;-61
2022/07/14 03:58:45;;;;;;;1.65;1.50;;;;;;;;;;8284823;28;20021;-60
2022/07/14 04:02:47;;;;;;;1.88;1.50;;;;;;;;;;8281173;28;20080;-61
2022/07/14 04:06:47;;;;;;;2.20;1.30;;;;;;;;;;8286049;28;20032;-60
2022/07/14 04:10:47;;;;;;;1.17;1.15;;;;;;;;;;8283616;28;20484;-61
2022/07/14 04:14:47;;;;;;;2.42;1.20;;;;;;;;;;8283759;28;20025;-60
2022/07/14 04:18:47;;;;;;;1.35;1.23;;;;;;;;;;8280211;28;20061;-61
2022/07/14 04:22:48;;;;;;;1.73;1.40;;;;;;;;;;8284300;28;20120;-61
2022/07/14 04:26:48;;;;;;;2.65;1.30;;;;;;;;;;8282304;28;20108;-60
2022/07/14 04:30:48;;;;;;;4.10;1.50;;;;;;;;;;8283778;28;20045;-60
2022/07/14 04:34:48;;;;;;;3.10;1.60;;;;;;;;;;8281882;28;20026;-61
2022/07/14 04:38:49;;;;;;;2.23;1.43;;;;;;;;;;8283152;28;20041;-62
2022/07/14 04:42:49;;;;;;;2.70;1.30;;;;;;;;;;8283876;28;20298;-60
2022/07/14 04:46:49;;;;;;;5.63;1.58;;;;;;;;;;8283479;28;20116;-62
2022/07/14 04:55:08;;;;;;;2.78;1.58;;;;;;;;;;8280672;28;20087;-60
2022/07/14 04:59:08;;;;;;;5.10;1.53;;;;;;;;;;8281930;28;20029;-61
2022/07/14 05:03:08;;;;;;;3.50;1.33;;;;;;;;;;8280360;28;20041;-60
2022/07/14 05:07:09;;;;;;;8.95;1.75;;;;;;;;;;8285227;28;20762;-60
2022/07/14 05:11:09;;;;;;;6.38;1.80;;;;;;;;;;8281643;28;20033;-60
2022/07/14 05:15:09;;;;;;;5.83;1.90;;;;;;;;;;8281194;28;20037;-61
2022/07/14 05:19:10;;;;;;;8.63;1.70;;;;;;;;;;8317564;28;20349;-60
2022/07/14 05:23:10;;;;;;;16.13;2.10;;;;;;;;;;8316782;28;20028;-60
2022/07/14 05:27:10;;;;;;;10.65;1.80;;;;;;;;;;8315177;28;20474;-61
2022/07/14 05:31:10;;;;;;;12.98;1.80;;;;;;;;;;8318410;28;20041;-60
2022/07/14 05:35:10;;;;;;;10.37;1.80;;;;;;;;;;8320864;28;20033;-61
2022/07/14 05:39:11;;;;;;;10.27;2.00;;;;;;;;;;8323222;28;20171;-62
2022/07/14 05:43:11;;;;;;;5.70;1.60;;;;;;;;;;8321826;28;20025;-61
2022/07/14 05:47:11;;;;;;;4.70;1.85;;;;;;;;;;8302991;28;20038;-60
2022/07/14 05:51:13;;;;;;;1.92;1.40;;;;;;;;;;8286299;28;20025;-60
2022/07/14 05:55:13;;;;;;;3.90;1.58;;;;;;;;;;8288341;28;20887;-60
2022/07/14 05:59:13;;;;;;;3.25;1.63;;;;;;;;;;8288176;28;20136;-60
2022/07/14 06:03:13;;;;;;;3.47;1.60;;;;;;;;;;8286155;28;20125;-60
2022/07/14 06:07:14;;;;;;;4.72;1.48;;;;;;;;;;8286647;28;20086;-60
2022/07/14 06:11:14;;;;;;;2.85;1.25;;;;;;;;;;8287059;28;20029;-60
2022/07/14 06:15:14;;;;;;;2.95;1.40;;;;;;;;;;8283808;28;20057;-60
2022/07/14 06:19:14;;;;;;;4.77;1.63;;;;;;;;;;8285835;28;20035;-60
2022/07/14 06:23:15;;;;;;;5.85;1.63;;;;;;;;;;8280502;28;20119;-60
2022/07/14 06:27:15;;;;;;;4.40;1.40;;;;;;;;;;8286842;28;20094;-60
2022/07/14 06:31:15;;;;;;;2.60;1.60;;;;;;;;;;8281013;28;20044;-60
2022/07/14 06:35:16;;;;;;;3.60;1.30;;;;;;;;;;8282264;28;20212;-59
2022/07/14 06:39:16;;;;;;;3.45;1.50;;;;;;;;;;8282205;28;20032;-60
2022/07/14 06:43:16;;;;;;;3.93;1.43;;;;;;;;;;8278695;28;20079;-60
2022/07/14 06:47:16;;;;;;;2.13;1.33;;;;;;;;;;8281447;28;20524;-60
2022/07/14 06:51:16;;;;;;;2.00;1.45;;;;;;;;;;8279799;28;21079;-60
2022/07/14 06:55:17;;;;;;;1.40;1.30;;;;;;;;;;8281661;28;20040;-60
2022/07/14 06:59:17;;;;;;;3.63;1.50;;;;;;;;;;8283048;28;20037;-60
2022/07/14 07:03:17;;;;;;;1.70;1.33;;;;;;;;;;8280081;28;20367;-60
2022/07/14 07:07:18;;;;;;;1.73;1.40;;;;;;;;;;8280567;28;20060;-60
2022/07/14 07:11:18;;;;;;;2.00;1.53;;;;;;;;;;8279774;28;20044;-60
2022/07/14 07:15:18;;;;;;;2.03;1.45;;;;;;;;;;8277923;28;20395;-60
2022/07/14 07:19:18;;;;;;;3.45;1.20;;;;;;;;;;8282226;28;20036;-60
2022/07/14 07:23:19;;;;;;;3.92;1.58;;;;;;;;;;8278197;28;20217;-60
2022/07/14 07:27:19;;;;;;;1.30;1.20;;;;;;;;;;8277848;28;20033;-60
2022/07/14 07:31:20;;;;;;;2.95;1.60;;;;;;;;;;8276023;28;20037;-60
2022/07/14 07:35:20;;;;;;;1.75;1.30;;;;;;;;;;8279563;28;20029;-60
2022/07/14 07:39:20;;;;;;;2.40;1.50;;;;;;;;;;8277289;28;20147;-60
2022/07/14 07:43:21;;;;;;;2.55;1.50;;;;;;;;;;8282726;28;20124;-60
2022/07/14 07:47:22;;;;;;;3.40;1.50;;;;;;;;;;8276798;28;20278;-60
2022/07/14 07:51:23;;;;;;;3.05;1.70;;;;;;;;;;8281616;28;20490;-60
2022/07/14 07:55:23;;;;;;;3.75;1.45;;;;;;;;;;8275964;28;20192;-61
2022/07/14 07:59:23;;;;;;;5.10;1.80;;;;;;;;;;8281168;28;20029;-60
2022/07/14 08:03:24;;;;;;;2.25;1.50;;;;;;;;;;8277065;28;20045;-60
2022/07/14 08:07:24;;;;;;;3.92;1.50;;;;;;;;;;8276455;28;20222;-60
2022/07/14 08:11:24;;;;;;;3.35;1.52;;;;;;;;;;8279177;28;20230;-60
2022/07/14 08:15:25;;;;;;;4.93;1.50;;;;;;;;;;8280327;28;20080;-60
2022/07/14 08:19:25;;;;;;;5.88;1.70;;;;;;;;;;8277390;28;20837;-60
2022/07/14 08:23:27;;;;;;;3.07;1.83;;;;;;;;;;8277788;28;20353;-60
2022/07/14 08:27:27;;;;;;;2.75;1.60;;;;;;;;;;8279366;28;20497;-60
2022/07/14 08:31:28;;;;;;;2.90;1.57;;;;;;;;;;8277885;28;20033;-60
2022/07/14 08:35:28;;;;;;;4.23;1.90;;;;;;;;;;8276448;28;20025;-60
2022/07/14 08:39:28;;;;;;;4.28;1.70;;;;;;;;;;8279725;28;20228;-60
2022/07/14 08:43:29;;;;;;;1.92;1.52;;;;;;;;;;8279373;28;20274;-61
2022/07/14 08:47:29;;;;;;;7.90;1.50;;;;;;;;;;8280841;28;20666;-60
2022/07/14 08:51:31;;;;;;;5.07;1.83;;;;;;;;;;8277171;28;20040;-60
2022/07/14 08:55:32;;;;;;;1.73;1.60;;;;;;;;;;8279028;28;20097;-60
2022/07/14 08:59:32;;;;;;;4.80;1.50;;;;;;;;;;8278947;28;20568;-60
2022/07/14 09:03:33;;;;;;;5.95;1.92;;;;;;;;;;8278744;28;20482;-60
2022/07/14 09:07:37;;;;;;;3.40;1.70;;;;;;;;;;8284742;28;20030;-60
2022/07/14 09:11:47;;;;;;;5.43;1.63;;;;;;;;;;8286275;28;20036;-60
2022/07/14 09:15:47;;;;;;;2.88;1.80;;;;;;;;;;8285164;28;20654;-60
2022/07/14 09:20:03;;;;;;;3.10;1.70;;;;;;;;;;8285348;28;20025;-60
2022/07/14 09:24:05;;;;;;;6.25;1.80;;;;;;;;;;8285901;28;20026;-60
2022/07/14 09:28:06;;;;;;;3.28;1.88;;;;;;;;;;8286532;28;20021;-60
2022/07/14 09:32:07;;;;;;;3.72;1.90;;;;;;;;;;8285627;28;20114;-60
2022/07/14 09:36:18;;;;;;;6.63;1.73;;;;;;;;;;8287189;28;20053;-60
2022/07/14 09:40:27;;;;;;;2.17;1.60;;;;;;;;;;8285995;28;20119;-60
2022/07/14 09:44:29;;;;;;;3.47;1.60;;;;;;;;;;8283595;28;20060;-60
2022/07/14 09:48:29;;;;;;;3.72;1.65;;;;;;;;;;8284129;28;20037;-60
2022/07/14 09:52:32;;;;;;;3.15;1.63;;;;;;;;;;8285922;28;20043;-60
2022/07/14 09:56:32;;;;;;;2.28;1.70;;;;;;;;;;8284250;28;20050;-61
2022/07/14 10:00:34;;;;;;;3.28;1.73;;;;;;;;;;8282850;28;20645;-60
2022/07/14 10:04:34;;;;;;;10.10;1.60;;;;;;;;;;8289898;28;20649;-60
2022/07/14 10:08:39;;;;;;;4.55;1.60;;;;;;;;;;8284390;28;20522;-61
2022/07/14 10:12:41;;;;;;;2.28;1.90;;;;;;;;;;8289140;28;20045;-60
2022/07/14 10:16:41;;;;;;;3.97;1.85;;;;;;;;;;8283928;28;20042;-60
2022/07/14 10:20:44;;;;;;;6.22;2.03;;;;;;;;;;8283784;28;20676;-60
2022/07/14 10:24:45;;;;;;;3.78;1.67;;;;;;;;;;8283107;28;20034;-60
2022/07/14 10:28:45;;;;;;;1.90;1.70;;;;;;;;;;8285742;28;20095;-60
2022/07/14 10:32:48;;;;;;;6.70;1.90;;;;;;;;;;8286165;28;20049;-60
2022/07/14 10:37:03;;;;;;;5.03;1.85;;;;;;;;;;8285886;28;20025;-60
2022/07/14 10:41:08;;;;;;;2.97;1.73;;;;;;;;;;8283046;28;20033;-61
2022/07/14 10:45:09;;;;;;;3.35;1.70;;;;;;;;;;8282807;28;20504;-60
2022/07/14 10:49:10;;;;;;;4.40;1.90;;;;;;;;;;8284982;28;20032;-60
2022/07/14 10:53:11;;;;;;;3.45;1.70;;;;;;;;;;8283521;28;20805;-61
2022/07/14 10:57:12;;;;;;;2.23;1.70;;;;;;;;;;8280221;28;20127;-60
2022/07/14 11:01:12;;;;;;;3.75;1.83;;;;;;;;;;8282094;28;20071;-60
2022/07/14 11:05:12;;;;;;;3.20;1.80;;;;;;;;;;8284519;28;20022;-61
2022/07/14 11:09:16;;;;;;;4.63;1.70;;;;;;;;;;8282534;28;20136;-60
2022/07/14 11:13:16;;;;;;;4.03;1.73;;;;;;;;;;8281934;28;20529;-60
2022/07/14 11:17:45;;;;;;;3.00;1.63;;;;;;;;;;8283340;28;20037;-60
2022/07/14 11:22:04;;;;;;;5.75;1.90;;;;;;;;;;8281178;28;20090;-63
2022/07/14 11:26:06;;;;;;;4.63;1.98;;;;;;;;;;8282345;28;20026;-60
2022/07/14 11:30:15;;;;;;;7.07;2.17;;;;;;;;;;8279208;28;20033;-60
2022/07/14 11:38:45;;;;;;;5.05;2.20;;;;;;;;;;8284114;28;20031;-60
2022/07/14 11:43:05;;;;;;;6.60;1.87;;;;;;;;;;8283731;28;20104;-60
2022/07/14 11:47:13;;;;;;;4.63;2.10;;;;;;;;;;8282058;28;20319;-60
2022/07/14 11:51:17;;;;;;;4.13;1.75;;;;;;;;;;8279497;28;20432;-60
2022/07/14 11:55:17;;;;;;;3.72;1.70;;;;;;;;;;8282208;28;20053;-60
2022/07/14 11:59:18;;;;;;;6.73;1.90;;;;;;;;;;8281287;28;20029;-61
2022/07/14 12:03:18;;;;;;;4.18;1.88;;;;;;;;;;8283339;28;20101;-61
2022/07/14 12:07:23;;;;;;;3.40;1.75;;;;;;;;;;8282641;28;20037;-60
2022/07/14 12:11:23;;;;;;;3.92;2.00;;;;;;;;;;8284157;28;20021;-60
2022/07/14 12:15:24;;;;;;;4.93;2.20;;;;;;;;;;8280460;28;20049;-60
2022/07/14 12:19:27;;;;;;;3.45;2.35;;;;;;;;;;8277280;28;20036;-60
2022/07/14 12:23:28;;;;;;;7.95;2.00;;;;;;;;;;8278822;28;20076;-61
2022/07/14 12:27:28;;;;;;;2.53;1.50;;;;;;;;;;8282081;28;20013;-62
2022/07/14 12:31:29;;;;;;;4.82;2.22;;;;;;;;;;8279604;28;20123;-60
2022/07/14 12:35:29;;;;;;;5.15;2.08;;;;;;;;;;8282107;28;20025;-62
2022/07/14 12:39:30;;;;;;;5.35;2.20;;;;;;;;;;8283440;28;20037;-60
2022/07/14 12:43:32;;;;;;;3.28;2.30;;;;;;;;;;8281915;28;20028;-61
2022/07/14 12:47:46;;;;;;;4.45;2.20;;;;;;;;;;8281673;28;20041;-61
2022/07/14 12:51:47;;;;;;;3.95;1.90;;;;;;;;;;8282788;28;20021;-60
2022/07/14 12:55:48;;;;;;;3.40;1.90;;;;;;;;;;8278792;28;20671;-60
2022/07/14 12:59:48;;;;;;;3.65;1.98;;;;;;;;;;8280808;28;20021;-60
2022/07/14 13:03:53;;;;;;;5.03;1.90;;;;;;;;;;8279517;28;20030;-60
2022/07/14 13:07:53;;;;;;;2.75;1.75;;;;;;;;;;8280505;28;20460;-60
2022/07/14 13:11:55;;;;;;;7.00;1.70;;;;;;;;;;8281396;28;20067;-60
2022/07/14 13:16:14;;;;;;;7.18;2.10;;;;;;;;;;8282420;28;20566;-60
2022/07/14 13:20:33;;;;;;;4.13;1.80;;;;;;;;;;8282140;28;20061;-60
2022/07/14 13:24:36;;;;;;;5.35;1.80;;;;;;;;;;8283487;28;20017;-60
2022/07/14 13:28:38;;;;;;;2.38;1.63;;;;;;;;;;8280919;28;20487;-60
2022/07/14 13:32:38;;;;;;;;;;;;;;;;;;8282251;28;20581;-60
2022/07/14 13:36:38;;;;;;;5.30;2.10;;;;;;;;;;8281961;28;20010;-60
2022/07/14 13:40:38;;;;;;;4.82;2.00;;;;;;;;;;8281774;28;20435;-60
2022/07/14 13:44:38;;;;;;;6.53;1.80;;;;;;;;;;8281585;28;20514;-60
2022/07/14 13:48:39;;;;;;;3.08;1.55;;;;;;;;;;8278329;28;20033;-60
2022/07/14 13:52:39;;;;;;;3.13;2.20;;;;;;;;;;8280216;28;20026;-60
2022/07/14 13:56:41;;;;;;;5.43;1.77;;;;;;;;;;8284288;28;20025;-60
2022/07/14 14:00:41;;;;;;;3.92;1.80;;;;;;;;;;8286120;28;20048;-60
2022/07/14 14:04:41;;;;;;;3.47;1.63;;;;;;;;;;8286549;28;20123;-59
2022/07/14 14:08:41;;;;;;;6.18;1.90;;;;;;;;;;8283834;28;20075;-60
2022/07/14 14:12:42;;;;;;;4.60;2.43;;;;;;;;;;8285497;28;20100;-60
2022/07/14 14:16:42;;;;;;;4.30;1.73;;;;;;;;;;8284151;28;20052;-60
2022/07/14 14:20:43;;;;;;;6.38;1.88;;;;;;;;;;8286745;28;20458;-60
2022/07/14 14:24:43;;;;;;;7.93;1.87;;;;;;;;;;8284303;28;20859;-60
2022/07/14 14:28:43;;;;;;;7.63;1.77;;;;;;;;;;8284108;28;20409;-60
2022/07/14 14:32:43;;;;;;;6.27;1.80;;;;;;;;;;8284024;28;20372;-60
2022/07/14 14:36:44;;;;;;;5.90;1.63;;;;;;;;;;8282903;28;21088;-60
2022/07/14 14:40:44;;;;;;;7.05;2.50;;;;;;;;;;8286523;28;20742;-60
2022/07/14 14:44:44;;;;;;;4.60;1.80;;;;;;;;;;8282452;28;20772;-61
2022/07/14 14:48:44;;;;;;;3.63;1.55;;;;;;;;;;8283248;28;20128;-60
2022/07/14 14:52:48;;;;;;;5.47;1.57;;;;;;;;;;8281718;28;20045;-60
2022/07/14 14:56:48;;;;;;;4.10;1.60;;;;;;;;;;8283067;28;20165;-60
2022/07/14 15:00:49;;;;;;;3.53;1.47;;;;;;;;;;8281263;28;20895;-60
2022/07/14 15:04:49;;;;;;;6.97;1.98;;;;;;;;;;8278099;28;20017;-60
2022/07/14 15:08:51;;;;;;;2.80;1.60;;;;;;;;;;8278287;28;20017;-60
2022/07/14 15:12:51;;;;;;;3.03;1.50;;;;;;;;;;8278405;28;20026;-59
2022/07/14 15:16:52;;;;;;;4.78;1.75;;;;;;;;;;8275689;28;20041;-60
2022/07/14 15:20:52;;;;;;;4.72;1.80;;;;;;;;;;8276198;28;20028;-59
2022/07/14 15:24:52;;;;;;;6.40;2.00;;;;;;;;;;8270361;28;20021;-60
2022/07/14 15:28:52;;;;;;;6.28;2.10;;;;;;;;;;8278408;28;20029;-60
2022/07/14 15:32:53;;;;;;;3.78;1.90;;;;;;;;;;8273422;28;20072;-59
2022/07/14 15:36:54;;;;;;;6.25;2.13;;;;;;;;;;8275569;28;20562;-60
2022/07/14 15:45:15;;;;;;;2.83;1.80;;;;;;;;;;8273136;28;20024;-60
2022/07/14 15:49:15;;;;;;;6.30;2.00;;;;;;;;;;8278090;28;20049;-60
2022/07/14 15:53:16;;;;;;;7.22;2.00;;;;;;;;;;8281178;28;20409;-60
2022/07/14 15:57:17;;;;;;;6.28;1.90;;;;;;;;;;8282982;28;20041;-60
2022/07/14 16:01:18;;;;;;;4.93;2.00;;;;;;;;;;8281816;28;20045;-60
2022/07/14 16:05:18;;;;;;;3.20;1.77;;;;;;;;;;8284175;28;20143;-60
2022/07/14 16:09:19;;;;;;;3.08;1.73;;;;;;;;;;8283463;28;20082;-60
2022/07/14 16:13:19;;;;;;;8.83;2.23;;;;;;;;;;8283782;28;20971;-59
2022/07/14 16:17:19;;;;;;;6.20;1.73;;;;;;;;;;8282079;28;20057;-59
2022/07/14 16:21:19;;;;;;;5.10;1.80;;;;;;;;;;8280604;28;20021;-60
2022/07/14 16:25:20;;;;;;;4.32;1.80;;;;;;;;;;8285982;28;20022;-60
2022/07/14 16:29:21;;;;;;;6.03;1.70;;;;;;;;;;8283927;28;20029;-59
2022/07/14 16:33:21;;;;;;;6.38;2.03;;;;;;;;;;8284496;28;20384;-60
2022/07/14 16:37:21;;;;;;;8.55;2.13;;;;;;;;;;8282771;28;20026;-61
2022/07/14 16:41:22;;;;;;;6.57;1.92;;;;;;;;;;8282638;28;20034;-60
2022/07/14 16:45:26;;;;;;;4.43;1.88;;;;;;;;;;8283941;28;20570;-59
2022/07/14 16:49:26;;;;;;;3.40;1.58;;;;;;;;;;8281612;28;20029;-59
2022/07/14 16:53:26;;;;;;;7.33;1.83;;;;;;;;;;8282229;28;20034;-60
2022/07/14 16:57:26;;;;;;;4.30;2.00;;;;;;;;;;8280659;28;20274;-60
2022/07/14 17:01:27;;;;;;;5.37;2.00;;;;;;;;;;8281298;28;20037;-60
2022/07/14 17:09:45;;;;;;;4.40;2.08;;;;;;;;;;8283745;28;20055;-59
2022/07/14 17:13:46;;;;;;;3.95;1.85;;;;;;;;;;8282633;28;20510;-60
2022/07/14 17:17:46;;;;;;;3.00;2.00;;;;;;;;;;8281394;28;20052;-61
2022/07/14 17:21:47;;;;;;;5.38;1.95;;;;;;;;;;8282608;28;20064;-59
2022/07/14 17:25:47;;;;;;;3.85;2.13;;;;;;;;;;8283319;28;20056;-59
2022/07/14 17:29:48;;;;;;;4.55;1.90;;;;;;;;;;8292432;28;20194;-60
2022/07/14 17:33:48;;;;;;;4.63;2.20;;;;;;;;;;8285585;28;20056;-59
2022/07/14 17:37:48;;;;;;;5.87;1.90;;;;;;;;;;8288534;28;20284;-60
2022/07/14 17:41:48;;;;;;;6.47;2.20;;;;;;;;;;8287324;28;20919;-60
2022/07/14 17:45:48;;;;;;;5.70;1.80;;;;;;;;;;8286885;28;20033;-60
2022/07/14 17:49:49;;;;;;;4.43;1.80;;;;;;;;;;8287484;28;20029;-60
2022/07/14 17:53:51;;;;;;;5.78;2.17;;;;;;;;;;8289148;28;20036;-59
2022/07/14 17:57:51;;;;;;;4.13;2.00;;;;;;;;;;8286460;28;20701;-59
2022/07/14 18:01:52;;;;;;;4.13;1.92;;;;;;;;;;8285528;28;20026;-60
2022/07/14 18:05:52;;;;;;;3.17;1.83;;;;;;;;;;8286702;28;20870;-60
2022/07/14 18:09:52;;;;;;;4.07;2.13;;;;;;;;;;8285797;28;20112;-60
2022/07/14 18:13:52;;;;;;;4.03;1.77;;;;;;;;;;8285003;28;20450;-60
2022/07/14 18:17:53;;;;;;;6.78;2.10;;;;;;;;;;8285472;28;20858;-59
2022/07/14 18:21:53;;;;;;;5.93;2.30;;;;;;;;;;8287615;28;20022;-59
2022/07/14 18:25:53;;;;;;;4.47;2.25;;;;;;;;;;8286603;28;20901;-60
2022/07/14 18:29:53;;;;;;;5.78;2.03;;;;;;;;;;8286840;28;20083;-59
2022/07/14 18:33:53;;;;;;;3.88;1.85;;;;;;;;;;8286916;28;20088;-60
2022/07/14 18:37:54;;;;;;;8.57;2.20;;;;;;;;;;8283850;28;20025;-60
2022/07/14 18:41:54;;;;;;;4.03;1.90;;;;;;;;;;8284753;28;20037;-59
2022/07/14 18:50:13;;;;;;;5.88;1.80;;;;;;;;;;8286912;28;20083;-59
2022/07/14 18:54:13;;;;;;;7.87;2.33;;;;;;;;;;8283947;28;20057;-60
2022/07/14 18:58:14;;;;;;;6.78;2.10;;;;;;;;;;8286780;28;20968;-60
2022/07/14 19:02:14;;;;;;;5.95;1.90;;;;;;;;;;8285742;28;20029;-59
2022/07/14 19:06:14;;;;;;;7.70;1.97;;;;;;;;;;8285558;28;20038;-59
2022/07/14 19:10:15;;;;;;;4.65;1.92;;;;;;;;;;8285963;28;20276;-59
2022/07/14 19:14:16;;;;;;;4.07;1.70;;;;;;;;;;8284244;28;20041;-60
2022/07/14 19:18:16;;;;;;;2.78;1.70;;;;;;;;;;8284511;28;20045;-60
2022/07/14 19:22:17;;;;;;;2.78;1.60;;;;;;;;;;8286242;28;20052;-59
2022/07/14 19:26:17;;;;;;;3.20;1.88;;;;;;;;;;8286561;28;20048;-59
2022/07/14 19:30:18;;;;;;;6.87;1.40;;;;;;;;;;8284122;28;20528;-59
2022/07/14 19:34:20;;;;;;;4.18;1.63;;;;;;;;;;8282430;28;20034;-60
2022/07/14 19:38:20;;;;;;;4.03;1.50;;;;;;;;;;8284804;28;20809;-59
2022/07/14 19:42:21;;;;;;;4.35;1.63;;;;;;;;;;8282512;28;20100;-59
2022/07/14 19:46:21;;;;;;;3.80;1.70;;;;;;;;;;8280986;28;20108;-60
2022/07/14 19:50:21;;;;;;;3.42;1.60;;;;;;;;;;8282114;28;20471;-61
2022/07/14 19:54:21;;;;;;;7.30;2.00;;;;;;;;;;8284985;28;20040;-60
2022/07/14 19:58:22;;;;;;;6.75;1.75;;;;;;;;;;8282450;28;20670;-61
2022/07/14 20:02:24;;;;;;;2.92;1.50;;;;;;;;;;8279365;28;20077;-61
2022/07/14 20:06:25;;;;;;;5.07;1.88;;;;;;;;;;8279617;28;20018;-60
2022/07/14 20:10:25;;;;;;;4.85;1.63;;;;;;;;;;8280148;28;20898;-60
2022/07/14 20:14:25;;;;;;;3.17;1.60;;;;;;;;;;8277569;28;20518;-60
2022/07/14 20:18:25;;;;;;;7.13;1.55;;;;;;;;;;8279947;28;20057;-60
2022/07/14 20:22:25;;;;;;;4.18;1.70;;;;;;;;;;8277219;28;20092;-59
2022/07/14 20:26:27;;;;;;;3.53;1.55;;;;;;;;;;8279034;28;20509;-59
2022/07/14 20:34:47;;;;;;;2.58;1.30;;;;;;;;;;8276830;28;20466;-61
2022/07/14 20:38:50;;;;;;;2.58;1.52;;;;;;;;;;8279271;28;20060;-60
2022/07/14 20:42:51;;;;;;;4.07;1.95;;;;;;;;;;8276616;28;20470;-60
2022/07/14 20:51:10;;;;;;;3.33;1.85;;;;;;;;;;8275899;28;20399;-60
2022/07/14 20:55:10;;;;;;;2.75;1.38;;;;;;;;;;8279629;28;20029;-60
2022/07/14 20:59:11;;;;;;;4.77;1.50;;;;;;;;;;8281397;28;20025;-59
2022/07/14 21:03:11;;;;;;;3.35;1.60;;;;;;;;;;8284235;28;20038;-59
2022/07/14 21:07:11;;;;;;;4.90;1.50;;;;;;;;;;8288128;28;20530;-60
2022/07/14 21:11:11;;;;;;;5.63;1.77;;;;;;;;;;8286186;28;20075;-60
2022/07/14 21:15:12;;;;;;;3.63;1.73;;;;;;;;;;8289450;28;20627;-59
2022/07/14 21:19:12;;;;;;;3.33;1.50;;;;;;;;;;8288089;28;21013;-60
2022/07/14 21:23:12;;;;;;;2.97;1.50;;;;;;;;;;8286995;28;20095;-60
2022/07/14 21:27:15;;;;;;;3.35;1.60;;;;;;;;;;8287872;28;20025;-58
2022/07/14 21:31:15;;;;;;;6.20;1.57;;;;;;;;;;8287818;28;20113;-59
2022/07/14 21:35:16;;;;;;;4.80;1.67;;;;;;;;;;8286402;28;20049;-59
2022/07/14 21:39:17;;;;;;;3.00;1.38;;;;;;;;;;8289758;28;20049;-59
2022/07/14 21:43:17;;;;;;;3.93;1.60;;;;;;;;;;8289182;28;20022;-58
2022/07/14 21:47:17;;;;;;;3.75;1.50;;;;;;;;;;8286873;28;20033;-59
2022/07/14 21:51:20;;;;;;;2.83;1.50;;;;;;;;;;8286315;28;20033;-59
2022/07/14 21:55:20;;;;;;;2.42;1.30;;;;;;;;;;8288045;28;20014;-59
2022/07/14 21:59:20;;;;;;;3.13;1.25;;;;;;;;;;8286963;28;20111;-59
2022/07/14 22:03:21;;;;;;;3.07;1.50;;;;;;;;;;8287168;28;20065;-59
2022/07/14 22:07:26;;;;;;;2.42;1.48;;;;;;;;;;8287204;28;20780;-59
2022/07/14 22:11:26;;;;;;;2.65;1.33;;;;;;;;;;8288578;28;20032;-58
2022/07/14 22:15:27;;;;;;;4.20;1.45;;;;;;;;;;8281380;28;20029;-59
2022/07/14 22:19:28;;;;;;;3.35;1.40;;;;;;;;;;8284843;28;20021;-60
2022/07/14 22:23:28;;;;;;;2.70;1.45;;;;;;;;;;8300917;28;20116;-59
2022/07/14 22:27:28;;;;;;;5.25;1.50;;;;;;;;;;8287002;28;20088;-59
2022/07/14 22:31:28;;;;;;;4.75;1.80;;;;;;;;;;8283244;28;20882;-58
2022/07/14 22:35:29;;;;;;;6.00;1.40;;;;;;;;;;8286254;28;20025;-59
2022/07/14 22:39:29;;;;;;;5.37;1.50;;;;;;;;;;8286330;28;20037;-59
2022/07/14 22:43:29;;;;;;;3.75;1.48;;;;;;;;;;8286860;28;20026;-59
2022/07/14 22:47:30;;;;;;;2.22;1.30;;;;;;;;;;8285033;28;20038;-58
2022/07/14 22:51:31;;;;;;;4.05;1.50;;;;;;;;;;8285443;28;20095;-60
2022/07/14 22:55:31;;;;;;;2.58;1.50;;;;;;;;;;8285482;28;20025;-60
2022/07/14 22:59:31;;;;;;;3.80;1.45;;;;;;;;;;8287559;28;20056;-58
2022/07/14 23:03:32;;;;;;;4.07;1.70;;;;;;;;;;8283422;28;20048;-60
2022/07/14 23:07:33;;;;;;;3.43;1.67;;;;;;;;;;8286348;28;20026;-57
2022/07/14 23:15:52;;;;;;;2.78;1.50;;;;;;;;;;8285133;28;20095;-58
2022/07/14 23:19:53;;;;;;;4.40;1.43;;;;;;;;;;8284812;28;20029;-58
2022/07/14 23:23:53;;;;;;;3.47;1.60;;;;;;;;;;8285074;28;20268;-58
2022/07/14 23:27:54;;;;;;;2.03;1.33;;;;;;;;;;8283534;28;20078;-59
2022/07/14 23:31:54;;;;;;;2.15;1.45;;;;;;;;;;8283026;28;20203;-58
2022/07/14 23:35:54;;;;;;;3.13;1.65;;;;;;;;;;8286336;28;20013;-59
2022/07/14 23:39:54;;;;;;;4.55;1.33;;;;;;;;;;8285069;28;20037;-58
2022/07/14 23:43:54;;;;;;;2.22;1.20;;;;;;;;;;8286095;28;20092;-59
2022/07/14 23:47:55;;;;;;;4.38;1.50;;;;;;;;;;8283907;28;20038;-59
2022/07/14 23:51:55;;;;;;;2.15;1.23;;;;;;;;;;8287840;28;20042;-59
2022/07/14 23:55:55;;;;;;;1.70;1.20;;;;;;;;;;8285034;28;20111;-59
2022/07/14 23:59:56;;;;;;;4.78;1.52;;;;;;;;;;8283310;28;20089;-58
